sensor_id;sensor_type;location;lat;lon;timestamp;temperature;humidity
16929;DHT22;8581;47.334;11.190;2022-07-22T00:01:55;16.10;99.90
16929;DHT22;8581;47.334;11.190;2022-07-22T00:04:27;16.00;99.90
16929;DHT22;8581;47.334;11.190;2022-07-22T00:06:58;16.00;99.90
16929;DHT22;8581;47.334;11.190;2022-07-22T00:09:30;16.10;99.90
16929;DHT22;8581;47.334;11.190;2022-07-22T00:12:01;16.10;99.90
16929;DHT22;8581;47.334;11.190;2022-07-22T00:14:33;16.20;99.90
16929;DHT22;8581;47.334;11.190;2022-07-22T00:17:05;16.20;99.90
16929;DHT22;8581;47.334;11.190;2022-07-22T00:19:36;16.10;99.90
16929;DHT22;8581;47.334;11.190;2022-07-22T00:22:08;15.90;99.90
16929;DHT22;8581;47.334;11.190;2022-07-22T00:24:39;16.00;99.90
16929;DHT22;8581;47.334;11.190;2022-07-22T00:27:11;16.10;99.90
16929;DHT22;8581;47.334;11.190;2022-07-22T00:29:43;16.10;99.90
16929;DHT22;8581;47.334;11.190;2022-07-22T00:32:14;15.90;99.90
16929;DHT22;8581;47.334;11.190;2022-07-22T00:34:46;15.70;99.90
16929;DHT22;8581;47.334;11.190;2022-07-22T00:37:17;15.60;99.90
16929;DHT22;8581;47.334;11.190;2022-07-22T00:39:49;15.60;99.90
16929;DHT22;8581;47.334;11.190;2022-07-22T00:42:21;15.60;99.90
16929;DHT22;8581;47.334;11.190;2022-07-22T00:44:52;15.50;99.90
16929;DHT22;8581;47.334;11.190;2022-07-22T00:47:24;15.30;99.90
16929;DHT22;8581;47.334;11.190;2022-07-22T00:49:55;15.30;99.90
16929;DHT22;8581;47.334;11.190;2022-07-22T00:52:27;15.20;99.90
16929;DHT22;8581;47.334;11.190;2022-07-22T00:54:59;15.30;99.90
16929;DHT22;8581;47.334;11.190;2022-07-22T00:57:30;15.10;99.90
16929;DHT22;8581;47.334;11.190;2022-07-22T01:00:03;15.00;99.90
16929;DHT22;8581;47.334;11.190;2022-07-22T01:02:34;14.90;99.90
16929;DHT22;8581;47.334;11.190;2022-07-22T01:05:05;14.90;99.90
16929;DHT22;8581;47.334;11.190;2022-07-22T01:07:38;15.00;99.90
16929;DHT22;8581;47.334;11.190;2022-07-22T01:10:09;14.90;99.90
16929;DHT22;8581;47.334;11.190;2022-07-22T01:12:40;14.90;99.90
16929;DHT22;8581;47.334;11.190;2022-07-22T01:15:12;14.80;99.90
16929;DHT22;8581;47.334;11.190;2022-07-22T01:17:44;14.80;99.90
16929;DHT22;8581;47.334;11.190;2022-07-22T01:20:15;14.70;99.90
16929;DHT22;8581;47.334;11.190;2022-07-22T01:22:47;14.70;99.90
16929;DHT22;8581;47.334;11.190;2022-07-22T01:25:18;14.60;99.90
16929;DHT22;8581;47.334;11.190;2022-07-22T01:27:50;14.50;99.90
16929;DHT22;8581;47.334;11.190;2022-07-22T01:30:22;14.50;99.90
16929;DHT22;8581;47.334;11.190;2022-07-22T01:32:53;14.50;99.90
16929;DHT22;8581;47.334;11.190;2022-07-22T01:35:25;14.40;99.90
16929;DHT22;8581;47.334;11.190;2022-07-22T01:37:56;14.40;99.90
16929;DHT22;8581;47.334;11.190;2022-07-22T01:40:28;14.70;99.90
16929;DHT22;8581;47.334;11.190;2022-07-22T01:43:00;14.80;99.90
16929;DHT22;8581;47.334;11.190;2022-07-22T01:45:32;14.70;99.90
16929;DHT22;8581;47.334;11.190;2022-07-22T01:48:04;14.70;99.90
16929;DHT22;8581;47.334;11.190;2022-07-22T01:50:36;14.70;99.90
16929;DHT22;8581;47.334;11.190;2022-07-22T01:53:07;14.70;99.90
16929;DHT22;8581;47.334;11.190;2022-07-22T01:55:39;14.80;99.90
16929;DHT22;8581;47.334;11.190;2022-07-22T01:58:11;14.70;99.90
16929;DHT22;8581;47.334;11.190;2022-07-22T02:00:42;14.60;99.90
16929;DHT22;8581;47.334;11.190;2022-07-22T02:03:14;14.50;99.90
16929;DHT22;8581;47.334;11.190;2022-07-22T02:05:46;14.60;99.90
16929;DHT22;8581;47.334;11.190;2022-07-22T02:08:17;14.60;99.90
16929;DHT22;8581;47.334;11.190;2022-07-22T02:10:49;14.40;99.90
16929;DHT22;8581;47.334;11.190;2022-07-22T02:13:20;14.30;99.90
16929;DHT22;8581;47.334;11.190;2022-07-22T02:15:52;14.30;99.90
16929;DHT22;8581;47.334;11.190;2022-07-22T02:18:24;14.30;99.90
16929;DHT22;8581;47.334;11.190;2022-07-22T02:20:55;14.20;99.90
16929;DHT22;8581;47.334;11.190;2022-07-22T02:23:27;14.20;99.90
16929;DHT22;8581;47.334;11.190;2022-07-22T02:25:58;14.10;99.90
16929;DHT22;8581;47.334;11.190;2022-07-22T02:28:30;14.10;99.90
16929;DHT22;8581;47.334;11.190;2022-07-22T02:31:02;14.10;99.90
16929;DHT22;8581;47.334;11.190;2022-07-22T02:33:33;14.10;99.90
16929;DHT22;8581;47.334;11.190;2022-07-22T02:36:05;14.00;99.90
16929;DHT22;8581;47.334;11.190;2022-07-22T02:38:37;14.00;99.90
16929;DHT22;8581;47.334;11.190;2022-07-22T02:41:08;14.00;99.90
16929;DHT22;8581;47.334;11.190;2022-07-22T02:43:40;14.00;99.90
16929;DHT22;8581;47.334;11.190;2022-07-22T02:46:12;13.90;99.90
16929;DHT22;8581;47.334;11.190;2022-07-22T02:48:43;13.80;99.90
16929;DHT22;8581;47.334;11.190;2022-07-22T02:51:15;13.90;99.90
16929;DHT22;8581;47.334;11.190;2022-07-22T02:53:46;13.80;99.90
16929;DHT22;8581;47.334;11.190;2022-07-22T02:56:18;13.80;99.90
16929;DHT22;8581;47.334;11.190;2022-07-22T02:58:50;13.80;99.90
16929;DHT22;8581;47.334;11.190;2022-07-22T03:01:21;13.90;99.90
16929;DHT22;8581;47.334;11.190;2022-07-22T03:03:53;13.80;99.90
16929;DHT22;8581;47.334;11.190;2022-07-22T03:06:25;13.80;99.90
16929;DHT22;8581;47.334;11.190;2022-07-22T03:08:56;13.80;99.90
16929;DHT22;8581;47.334;11.190;2022-07-22T03:11:28;13.80;99.90
16929;DHT22;8581;47.334;11.190;2022-07-22T03:13:59;13.80;99.90
16929;DHT22;8581;47.334;11.190;2022-07-22T03:16:31;13.90;99.90
16929;DHT22;8581;47.334;11.190;2022-07-22T03:19:03;13.80;99.90
16929;DHT22;8581;47.334;11.190;2022-07-22T03:21:34;13.80;99.90
16929;DHT22;8581;47.334;11.190;2022-07-22T03:24:06;14.10;99.90
16929;DHT22;8581;47.334;11.190;2022-07-22T03:26:37;14.10;99.90
16929;DHT22;8581;47.334;11.190;2022-07-22T03:29:09;14.00;99.90
16929;DHT22;8581;47.334;11.190;2022-07-22T03:31:41;13.90;99.90
16929;DHT22;8581;47.334;11.190;2022-07-22T03:34:12;13.90;99.90
16929;DHT22;8581;47.334;11.190;2022-07-22T03:36:44;13.90;99.90
16929;DHT22;8581;47.334;11.190;2022-07-22T03:39:15;13.90;99.90
16929;DHT22;8581;47.334;11.190;2022-07-22T03:41:47;13.90;99.90
16929;DHT22;8581;47.334;11.190;2022-07-22T03:44:19;14.00;99.90
16929;DHT22;8581;47.334;11.190;2022-07-22T03:46:51;13.90;99.90
16929;DHT22;8581;47.334;11.190;2022-07-22T03:49:23;13.80;99.90
16929;DHT22;8581;47.334;11.190;2022-07-22T03:51:55;13.80;99.90
16929;DHT22;8581;47.334;11.190;2022-07-22T03:54:26;13.90;99.90
16929;DHT22;8581;47.334;11.190;2022-07-22T03:56:57;13.90;99.90
16929;DHT22;8581;47.334;11.190;2022-07-22T03:59:29;13.80;99.90
16929;DHT22;8581;47.334;11.190;2022-07-22T04:02:01;13.70;99.90
16929;DHT22;8581;47.334;11.190;2022-07-22T04:04:32;13.80;99.90
16929;DHT22;8581;47.334;11.190;2022-07-22T04:07:04;13.80;99.90
16929;DHT22;8581;47.334;11.190;2022-07-22T04:09:35;13.90;99.90
16929;DHT22;8581;47.334;11.190;2022-07-22T04:12:07;13.90;99.90
16929;DHT22;8581;47.334;11.190;2022-07-22T04:14:39;13.90;99.90
16929;DHT22;8581;47.334;11.190;2022-07-22T04:17:11;14.10;99.90
16929;DHT22;8581;47.334;11.190;2022-07-22T04:19:42;14.00;99.90
16929;DHT22;8581;47.334;11.190;2022-07-22T04:22:14;14.00;99.90
16929;DHT22;8581;47.334;11.190;2022-07-22T04:24:45;14.20;99.90
16929;DHT22;8581;47.334;11.190;2022-07-22T04:27:17;14.10;99.90
16929;DHT22;8581;47.334;11.190;2022-07-22T04:29:49;14.10;99.90
16929;DHT22;8581;47.334;11.190;2022-07-22T04:32:20;14.10;99.90
16929;DHT22;8581;47.334;11.190;2022-07-22T04:34:52;14.10;99.90
16929;DHT22;8581;47.334;11.190;2022-07-22T04:37:23;14.10;99.90
16929;DHT22;8581;47.334;11.190;2022-07-22T04:39:55;14.00;99.90
16929;DHT22;8581;47.334;11.190;2022-07-22T04:42:27;14.10;99.90
16929;DHT22;8581;47.334;11.190;2022-07-22T04:44:58;14.10;99.90
16929;DHT22;8581;47.334;11.190;2022-07-22T04:47:30;14.20;99.90
16929;DHT22;8581;47.334;11.190;2022-07-22T04:50:01;14.50;99.90
16929;DHT22;8581;47.334;11.190;2022-07-22T04:52:33;14.60;99.90
16929;DHT22;8581;47.334;11.190;2022-07-22T04:55:06;14.60;99.90
16929;DHT22;8581;47.334;11.190;2022-07-22T04:57:37;14.60;99.90
16929;DHT22;8581;47.334;11.190;2022-07-22T05:00:09;14.50;99.90
16929;DHT22;8581;47.334;11.190;2022-07-22T05:02:41;14.60;99.90
16929;DHT22;8581;47.334;11.190;2022-07-22T05:05:13;14.70;99.90
16929;DHT22;8581;47.334;11.190;2022-07-22T05:07:44;14.80;99.90
16929;DHT22;8581;47.334;11.190;2022-07-22T05:10:16;14.80;99.90
16929;DHT22;8581;47.334;11.190;2022-07-22T05:12:47;14.90;99.90
16929;DHT22;8581;47.334;11.190;2022-07-22T05:15:19;15.00;99.90
16929;DHT22;8581;47.334;11.190;2022-07-22T05:17:51;15.10;99.90
16929;DHT22;8581;47.334;11.190;2022-07-22T05:20:22;15.20;99.90
16929;DHT22;8581;47.334;11.190;2022-07-22T05:22:54;15.30;99.90
16929;DHT22;8581;47.334;11.190;2022-07-22T05:25:25;15.40;99.90
16929;DHT22;8581;47.334;11.190;2022-07-22T05:27:57;15.50;99.90
16929;DHT22;8581;47.334;11.190;2022-07-22T05:30:29;15.70;99.90
16929;DHT22;8581;47.334;11.190;2022-07-22T05:33:00;15.80;99.90
16929;DHT22;8581;47.334;11.190;2022-07-22T05:35:32;16.00;99.90
16929;DHT22;8581;47.334;11.190;2022-07-22T05:38:03;16.20;99.90
16929;DHT22;8581;47.334;11.190;2022-07-22T05:40:40;16.20;99.90
16929;DHT22;8581;47.334;11.190;2022-07-22T05:43:12;16.20;99.90
16929;DHT22;8581;47.334;11.190;2022-07-22T05:45:43;16.40;99.90
16929;DHT22;8581;47.334;11.190;2022-07-22T05:48:15;16.50;99.90
16929;DHT22;8581;47.334;11.190;2022-07-22T05:50:46;16.80;99.90
16929;DHT22;8581;47.334;11.190;2022-07-22T05:53:18;16.90;99.90
16929;DHT22;8581;47.334;11.190;2022-07-22T05:55:50;16.90;99.90
16929;DHT22;8581;47.334;11.190;2022-07-22T05:58:21;17.00;99.90
16929;DHT22;8581;47.334;11.190;2022-07-22T06:00:53;17.30;99.90
16929;DHT22;8581;47.334;11.190;2022-07-22T06:03:24;17.40;99.90
16929;DHT22;8581;47.334;11.190;2022-07-22T06:05:56;17.50;99.90
16929;DHT22;8581;47.334;11.190;2022-07-22T06:08:28;17.60;99.90
16929;DHT22;8581;47.334;11.190;2022-07-22T06:10:59;17.60;99.90
16929;DHT22;8581;47.334;11.190;2022-07-22T06:13:31;17.70;99.90
16929;DHT22;8581;47.334;11.190;2022-07-22T06:16:03;18.00;99.90
16929;DHT22;8581;47.334;11.190;2022-07-22T06:18:34;18.00;99.90
16929;DHT22;8581;47.334;11.190;2022-07-22T06:21:06;18.10;99.90
16929;DHT22;8581;47.334;11.190;2022-07-22T06:23:38;18.20;99.90
16929;DHT22;8581;47.334;11.190;2022-07-22T06:26:09;18.30;99.90
16929;DHT22;8581;47.334;11.190;2022-07-22T06:28:41;18.30;99.90
16929;DHT22;8581;47.334;11.190;2022-07-22T06:31:13;18.10;99.90
16929;DHT22;8581;47.334;11.190;2022-07-22T06:33:44;18.30;99.90
16929;DHT22;8581;47.334;11.190;2022-07-22T06:36:16;18.40;99.90
16929;DHT22;8581;47.334;11.190;2022-07-22T06:38:47;18.50;99.90
16929;DHT22;8581;47.334;11.190;2022-07-22T06:41:19;18.50;99.90
16929;DHT22;8581;47.334;11.190;2022-07-22T06:43:51;18.50;99.90
16929;DHT22;8581;47.334;11.190;2022-07-22T06:46:23;18.70;99.90
16929;DHT22;8581;47.334;11.190;2022-07-22T06:48:54;18.70;99.90
16929;DHT22;8581;47.334;11.190;2022-07-22T06:51:27;18.90;99.90
16929;DHT22;8581;47.334;11.190;2022-07-22T06:53:58;19.20;99.90
16929;DHT22;8581;47.334;11.190;2022-07-22T06:56:30;19.20;99.90
16929;DHT22;8581;47.334;11.190;2022-07-22T06:59:02;19.30;99.90
16929;DHT22;8581;47.334;11.190;2022-07-22T07:01:33;19.30;99.90
16929;DHT22;8581;47.334;11.190;2022-07-22T07:04:05;19.20;99.90
16929;DHT22;8581;47.334;11.190;2022-07-22T07:06:36;19.10;99.90
16929;DHT22;8581;47.334;11.190;2022-07-22T07:09:08;19.10;99.90
16929;DHT22;8581;47.334;11.190;2022-07-22T07:11:40;19.20;99.90
16929;DHT22;8581;47.334;11.190;2022-07-22T07:14:15;19.40;99.90
16929;DHT22;8581;47.334;11.190;2022-07-22T07:16:46;19.50;99.90
16929;DHT22;8581;47.334;11.190;2022-07-22T07:19:18;19.70;99.90
16929;DHT22;8581;47.334;11.190;2022-07-22T07:21:50;19.70;99.90
16929;DHT22;8581;47.334;11.190;2022-07-22T07:24:21;19.70;99.90
16929;DHT22;8581;47.334;11.190;2022-07-22T07:26:53;19.60;99.90
16929;DHT22;8581;47.334;11.190;2022-07-22T07:29:24;19.60;99.90
16929;DHT22;8581;47.334;11.190;2022-07-22T07:31:56;19.70;99.90
16929;DHT22;8581;47.334;11.190;2022-07-22T07:34:28;19.90;99.90
16929;DHT22;8581;47.334;11.190;2022-07-22T07:36:59;20.00;99.90
16929;DHT22;8581;47.334;11.190;2022-07-22T07:39:31;20.00;99.90
16929;DHT22;8581;47.334;11.190;2022-07-22T07:42:03;20.10;99.90
16929;DHT22;8581;47.334;11.190;2022-07-22T07:44:35;20.30;99.90
16929;DHT22;8581;47.334;11.190;2022-07-22T07:47:06;20.30;99.90
16929;DHT22;8581;47.334;11.190;2022-07-22T07:49:38;20.40;99.90
16929;DHT22;8581;47.334;11.190;2022-07-22T07:52:10;20.30;99.90
16929;DHT22;8581;47.334;11.190;2022-07-22T07:54:41;20.40;99.90
16929;DHT22;8581;47.334;11.190;2022-07-22T07:57:13;20.60;99.90
16929;DHT22;8581;47.334;11.190;2022-07-22T07:59:45;20.70;99.90
16929;DHT22;8581;47.334;11.190;2022-07-22T08:02:16;20.80;99.90
16929;DHT22;8581;47.334;11.190;2022-07-22T08:04:48;20.90;99.90
16929;DHT22;8581;47.334;11.190;2022-07-22T08:07:20;21.00;99.90
16929;DHT22;8581;47.334;11.190;2022-07-22T08:09:52;21.00;99.90
16929;DHT22;8581;47.334;11.190;2022-07-22T08:12:23;21.00;99.90
16929;DHT22;8581;47.334;11.190;2022-07-22T08:14:55;21.20;99.90
16929;DHT22;8581;47.334;11.190;2022-07-22T08:17:27;21.40;99.90
16929;DHT22;8581;47.334;11.190;2022-07-22T08:19:58;21.40;99.90
16929;DHT22;8581;47.334;11.190;2022-07-22T08:22:30;21.40;99.90
16929;DHT22;8581;47.334;11.190;2022-07-22T08:25:02;21.60;99.90
16929;DHT22;8581;47.334;11.190;2022-07-22T08:27:33;21.70;99.90
16929;DHT22;8581;47.334;11.190;2022-07-22T08:30:06;21.80;99.90
16929;DHT22;8581;47.334;11.190;2022-07-22T08:32:37;22.10;99.90
16929;DHT22;8581;47.334;11.190;2022-07-22T08:35:09;22.10;99.90
16929;DHT22;8581;47.334;11.190;2022-07-22T08:37:40;22.20;99.90
16929;DHT22;8581;47.334;11.190;2022-07-22T08:40:12;22.30;99.90
16929;DHT22;8581;47.334;11.190;2022-07-22T08:42:44;22.20;99.90
16929;DHT22;8581;47.334;11.190;2022-07-22T08:45:15;22.40;99.90
16929;DHT22;8581;47.334;11.190;2022-07-22T08:47:48;22.40;99.90
16929;DHT22;8581;47.334;11.190;2022-07-22T08:50:18;22.60;99.90
16929;DHT22;8581;47.334;11.190;2022-07-22T08:52:50;22.70;99.90
16929;DHT22;8581;47.334;11.190;2022-07-22T08:55:22;22.80;99.90
16929;DHT22;8581;47.334;11.190;2022-07-22T08:57:53;23.00;99.90
16929;DHT22;8581;47.334;11.190;2022-07-22T09:00:25;23.00;99.90
16929;DHT22;8581;47.334;11.190;2022-07-22T09:02:57;23.00;99.90
16929;DHT22;8581;47.334;11.190;2022-07-22T09:05:48;23.10;99.90
16929;DHT22;8581;47.334;11.190;2022-07-22T09:08:21;23.40;99.90
16929;DHT22;8581;47.334;11.190;2022-07-22T09:10:53;23.40;99.90
16929;DHT22;8581;47.334;11.190;2022-07-22T09:13:24;23.40;99.90
16929;DHT22;8581;47.334;11.190;2022-07-22T09:15:56;23.70;99.90
16929;DHT22;8581;47.334;11.190;2022-07-22T09:18:27;23.80;99.90
16929;DHT22;8581;47.334;11.190;2022-07-22T09:20:59;23.80;99.90
16929;DHT22;8581;47.334;11.190;2022-07-22T09:23:38;24.00;99.90
16929;DHT22;8581;47.334;11.190;2022-07-22T09:26:03;24.30;99.90
16929;DHT22;8581;47.334;11.190;2022-07-22T09:28:35;24.40;99.90
16929;DHT22;8581;47.334;11.190;2022-07-22T09:31:07;24.50;99.90
16929;DHT22;8581;47.334;11.190;2022-07-22T09:33:38;24.60;99.90
16929;DHT22;8581;47.334;11.190;2022-07-22T09:36:10;25.00;99.90
16929;DHT22;8581;47.334;11.190;2022-07-22T09:38:42;25.30;99.90
16929;DHT22;8581;47.334;11.190;2022-07-22T09:41:13;25.20;99.90
16929;DHT22;8581;47.334;11.190;2022-07-22T09:43:45;25.40;99.90
16929;DHT22;8581;47.334;11.190;2022-07-22T09:46:16;25.40;99.90
16929;DHT22;8581;47.334;11.190;2022-07-22T09:48:48;25.40;99.90
16929;DHT22;8581;47.334;11.190;2022-07-22T09:51:20;25.50;99.90
16929;DHT22;8581;47.334;11.190;2022-07-22T09:53:51;25.90;99.90
16929;DHT22;8581;47.334;11.190;2022-07-22T09:56:23;26.80;99.90
16929;DHT22;8581;47.334;11.190;2022-07-22T09:58:54;27.60;99.90
16929;DHT22;8581;47.334;11.190;2022-07-22T10:01:26;28.60;99.90
16929;DHT22;8581;47.334;11.190;2022-07-22T10:03:58;29.50;99.90
16929;DHT22;8581;47.334;11.190;2022-07-22T10:06:29;30.60;99.90
16929;DHT22;8581;47.334;11.190;2022-07-22T10:09:01;31.10;99.90
16929;DHT22;8581;47.334;11.190;2022-07-22T10:11:33;31.80;99.90
16929;DHT22;8581;47.334;11.190;2022-07-22T10:14:04;32.30;99.90
16929;DHT22;8581;47.334;11.190;2022-07-22T10:16:36;33.10;99.90
16929;DHT22;8581;47.334;11.190;2022-07-22T10:19:07;33.90;99.90
16929;DHT22;8581;47.334;11.190;2022-07-22T10:21:39;34.30;99.70
16929;DHT22;8581;47.334;11.190;2022-07-22T10:24:13;35.30;97.20
16929;DHT22;8581;47.334;11.190;2022-07-22T10:26:49;35.20;96.00
16929;DHT22;8581;47.334;11.190;2022-07-22T10:29:24;35.60;95.90
16929;DHT22;8581;47.334;11.190;2022-07-22T10:34:39;36.60;93.50
16929;DHT22;8581;47.334;11.190;2022-07-22T10:43:04;36.50;88.10
16929;DHT22;8581;47.334;11.190;2022-07-22T10:45:38;37.10;87.70
16929;DHT22;8581;47.334;11.190;2022-07-22T10:48:08;37.20;88.00
16929;DHT22;8581;47.334;11.190;2022-07-22T10:50:41;37.10;85.30
16929;DHT22;8581;47.334;11.190;2022-07-22T10:53:14;37.30;86.30
16929;DHT22;8581;47.334;11.190;2022-07-22T10:55:58;37.90;84.30
16929;DHT22;8581;47.334;11.190;2022-07-22T10:58:42;37.30;83.80
16929;DHT22;8581;47.334;11.190;2022-07-22T11:01:13;37.60;87.60
16929;DHT22;8581;47.334;11.190;2022-07-22T11:03:44;38.30;82.70
16929;DHT22;8581;47.334;11.190;2022-07-22T11:06:17;38.60;81.90
16929;DHT22;8581;47.334;11.190;2022-07-22T11:08:49;39.10;81.90
16929;DHT22;8581;47.334;11.190;2022-07-22T11:11:31;39.60;81.80
16929;DHT22;8581;47.334;11.190;2022-07-22T11:13:51;39.30;80.10
16929;DHT22;8581;47.334;11.190;2022-07-22T11:16:23;39.30;83.10
16929;DHT22;8581;47.334;11.190;2022-07-22T11:18:58;39.90;79.20
16929;DHT22;8581;47.334;11.190;2022-07-22T11:21:29;39.80;78.20
16929;DHT22;8581;47.334;11.190;2022-07-22T11:24:01;39.90;79.60
16929;DHT22;8581;47.334;11.190;2022-07-22T11:26:37;40.00;76.00
16929;DHT22;8581;47.334;11.190;2022-07-22T11:29:07;40.00;74.50
16929;DHT22;8581;47.334;11.190;2022-07-22T11:31:38;40.40;75.30
16929;DHT22;8581;47.334;11.190;2022-07-22T11:34:12;40.40;74.30
16929;DHT22;8581;47.334;11.190;2022-07-22T11:36:44;40.80;71.00
16929;DHT22;8581;47.334;11.190;2022-07-22T11:39:17;42.30;73.40
16929;DHT22;8581;47.334;11.190;2022-07-22T11:41:46;42.60;71.20
16929;DHT22;8581;47.334;11.190;2022-07-22T11:44:19;42.00;69.70
16929;DHT22;8581;47.334;11.190;2022-07-22T11:46:50;42.10;69.20
16929;DHT22;8581;47.334;11.190;2022-07-22T11:49:21;42.00;64.80
16929;DHT22;8581;47.334;11.190;2022-07-22T11:51:54;42.40;67.50
16929;DHT22;8581;47.334;11.190;2022-07-22T11:54:26;42.90;65.30
16929;DHT22;8581;47.334;11.190;2022-07-22T11:56:57;43.70;63.20
16929;DHT22;8581;47.334;11.190;2022-07-22T11:59:29;44.50;69.60
16929;DHT22;8581;47.334;11.190;2022-07-22T12:02:02;44.60;63.10
16929;DHT22;8581;47.334;11.190;2022-07-22T12:04:32;44.60;62.10
16929;DHT22;8581;47.334;11.190;2022-07-22T12:07:04;45.60;59.90
16929;DHT22;8581;47.334;11.190;2022-07-22T12:09:36;45.00;58.30
16929;DHT22;8581;47.334;11.190;2022-07-22T12:12:07;43.00;63.70
16929;DHT22;8581;47.334;11.190;2022-07-22T12:14:44;43.40;63.00
16929;DHT22;8581;47.334;11.190;2022-07-22T12:17:11;44.40;61.80
16929;DHT22;8581;47.334;11.190;2022-07-22T12:19:42;44.40;59.40
16929;DHT22;8581;47.334;11.190;2022-07-22T12:22:19;44.50;61.00
16929;DHT22;8581;47.334;11.190;2022-07-22T12:24:58;44.40;61.60
16929;DHT22;8581;47.334;11.190;2022-07-22T12:27:28;44.30;61.20
16929;DHT22;8581;47.334;11.190;2022-07-22T12:30:00;45.80;57.60
16929;DHT22;8581;47.334;11.190;2022-07-22T12:32:32;46.20;58.70
16929;DHT22;8581;47.334;11.190;2022-07-22T12:35:04;46.50;58.10
16929;DHT22;8581;47.334;11.190;2022-07-22T12:37:44;46.10;58.70
16929;DHT22;8581;47.334;11.190;2022-07-22T12:40:17;45.90;58.30
16929;DHT22;8581;47.334;11.190;2022-07-22T12:43:00;45.40;59.10
16929;DHT22;8581;47.334;11.190;2022-07-22T12:45:31;45.50;58.40
16929;DHT22;8581;47.334;11.190;2022-07-22T12:48:06;44.90;59.80
16929;DHT22;8581;47.334;11.190;2022-07-22T12:50:39;44.70;59.40
16929;DHT22;8581;47.334;11.190;2022-07-22T12:53:14;45.30;58.80
16929;DHT22;8581;47.334;11.190;2022-07-22T12:55:47;44.60;59.80
16929;DHT22;8581;47.334;11.190;2022-07-22T12:58:17;45.00;59.50
16929;DHT22;8581;47.334;11.190;2022-07-22T13:00:50;45.50;57.60
16929;DHT22;8581;47.334;11.190;2022-07-22T13:03:20;45.50;58.90
16929;DHT22;8581;47.334;11.190;2022-07-22T13:05:55;46.20;57.90
16929;DHT22;8581;47.334;11.190;2022-07-22T13:08:26;46.30;56.90
16929;DHT22;8581;47.334;11.190;2022-07-22T13:10:57;45.50;57.00
16929;DHT22;8581;47.334;11.190;2022-07-22T13:13:28;46.10;56.60
16929;DHT22;8581;47.334;11.190;2022-07-22T13:16:01;46.70;56.70
16929;DHT22;8581;47.334;11.190;2022-07-22T13:18:32;45.40;56.20
16929;DHT22;8581;47.334;11.190;2022-07-22T13:21:04;45.90;55.80
16929;DHT22;8581;47.334;11.190;2022-07-22T13:23:36;45.40;55.30
16929;DHT22;8581;47.334;11.190;2022-07-22T13:26:07;44.80;57.60
16929;DHT22;8581;47.334;11.190;2022-07-22T13:28:39;45.10;58.50
16929;DHT22;8581;47.334;11.190;2022-07-22T13:31:11;45.50;57.70
16929;DHT22;8581;47.334;11.190;2022-07-22T13:33:43;45.10;57.50
16929;DHT22;8581;47.334;11.190;2022-07-22T13:36:15;45.50;55.40
16929;DHT22;8581;47.334;11.190;2022-07-22T13:38:46;45.70;55.70
16929;DHT22;8581;47.334;11.190;2022-07-22T13:41:18;46.60;55.20
16929;DHT22;8581;47.334;11.190;2022-07-22T13:43:50;46.50;54.60
16929;DHT22;8581;47.334;11.190;2022-07-22T13:46:21;46.10;54.60
16929;DHT22;8581;47.334;11.190;2022-07-22T13:48:53;45.50;55.70
16929;DHT22;8581;47.334;11.190;2022-07-22T13:51:25;45.50;54.60
16929;DHT22;8581;47.334;11.190;2022-07-22T13:53:56;46.10;55.60
16929;DHT22;8581;47.334;11.190;2022-07-22T13:56:28;46.20;55.00
16929;DHT22;8581;47.334;11.190;2022-07-22T13:58:59;45.50;54.60
16929;DHT22;8581;47.334;11.190;2022-07-22T14:01:31;45.20;55.30
16929;DHT22;8581;47.334;11.190;2022-07-22T14:04:03;44.90;55.90
16929;DHT22;8581;47.334;11.190;2022-07-22T14:06:34;45.40;55.50
16929;DHT22;8581;47.334;11.190;2022-07-22T14:09:06;46.20;54.40
16929;DHT22;8581;47.334;11.190;2022-07-22T14:11:38;46.30;53.40
16929;DHT22;8581;47.334;11.190;2022-07-22T14:14:09;47.10;54.30
16929;DHT22;8581;47.334;11.190;2022-07-22T14:16:41;45.90;54.20
16929;DHT22;8581;47.334;11.190;2022-07-22T14:19:13;46.30;53.80
16929;DHT22;8581;47.334;11.190;2022-07-22T14:21:45;46.10;53.70
16929;DHT22;8581;47.334;11.190;2022-07-22T14:24:16;46.70;53.10
16929;DHT22;8581;47.334;11.190;2022-07-22T14:26:47;45.80;53.20
16929;DHT22;8581;47.334;11.190;2022-07-22T14:29:19;45.30;54.80
16929;DHT22;8581;47.334;11.190;2022-07-22T14:31:50;44.60;55.20
16929;DHT22;8581;47.334;11.190;2022-07-22T14:34:22;45.70;54.60
16929;DHT22;8581;47.334;11.190;2022-07-22T14:36:54;45.00;54.90
16929;DHT22;8581;47.334;11.190;2022-07-22T14:39:25;45.00;56.20
16929;DHT22;8581;47.334;11.190;2022-07-22T14:41:57;44.90;55.50
16929;DHT22;8581;47.334;11.190;2022-07-22T14:44:29;44.70;56.30
16929;DHT22;8581;47.334;11.190;2022-07-22T14:47:00;45.80;54.50
16929;DHT22;8581;47.334;11.190;2022-07-22T14:49:32;46.60;54.40
16929;DHT22;8581;47.334;11.190;2022-07-22T14:52:03;46.50;54.00
16929;DHT22;8581;47.334;11.190;2022-07-22T14:54:35;45.30;54.00
16929;DHT22;8581;47.334;11.190;2022-07-22T14:57:07;46.10;54.60
16929;DHT22;8581;47.334;11.190;2022-07-22T14:59:38;45.50;55.50
16929;DHT22;8581;47.334;11.190;2022-07-22T15:02:10;46.00;54.40
16929;DHT22;8581;47.334;11.190;2022-07-22T15:04:41;45.60;55.60
16929;DHT22;8581;47.334;11.190;2022-07-22T15:07:13;46.90;54.90
16929;DHT22;8581;47.334;11.190;2022-07-22T15:09:45;46.00;54.60
16929;DHT22;8581;47.334;11.190;2022-07-22T15:12:16;46.80;53.50
16929;DHT22;8581;47.334;11.190;2022-07-22T15:14:48;47.10;54.70
16929;DHT22;8581;47.334;11.190;2022-07-22T15:17:19;46.50;54.00
16929;DHT22;8581;47.334;11.190;2022-07-22T15:19:51;46.10;55.30
16929;DHT22;8581;47.334;11.190;2022-07-22T15:22:23;44.70;56.60
16929;DHT22;8581;47.334;11.190;2022-07-22T15:24:54;44.90;56.40
16929;DHT22;8581;47.334;11.190;2022-07-22T15:27:26;44.60;56.30
16929;DHT22;8581;47.334;11.190;2022-07-22T15:29:58;44.40;56.80
16929;DHT22;8581;47.334;11.190;2022-07-22T15:32:29;44.40;56.80
16929;DHT22;8581;47.334;11.190;2022-07-22T15:35:01;43.90;58.00
16929;DHT22;8581;47.334;11.190;2022-07-22T15:37:32;43.60;57.40
16929;DHT22;8581;47.334;11.190;2022-07-22T15:40:06;42.20;58.10
16929;DHT22;8581;47.334;11.190;2022-07-22T15:42:38;42.10;59.70
16929;DHT22;8581;47.334;11.190;2022-07-22T15:45:10;41.30;60.20
16929;DHT22;8581;47.334;11.190;2022-07-22T15:47:41;39.50;62.40
16929;DHT22;8581;47.334;11.190;2022-07-22T15:50:13;38.20;64.80
16929;DHT22;8581;47.334;11.190;2022-07-22T15:52:44;36.70;67.00
16929;DHT22;8581;47.334;11.190;2022-07-22T15:55:16;35.10;69.50
16929;DHT22;8581;47.334;11.190;2022-07-22T15:57:48;34.10;72.30
16929;DHT22;8581;47.334;11.190;2022-07-22T16:00:25;33.10;74.10
16929;DHT22;8581;47.334;11.190;2022-07-22T16:02:56;32.10;76.90
16929;DHT22;8581;47.334;11.190;2022-07-22T16:05:28;31.50;77.80
16929;DHT22;8581;47.334;11.190;2022-07-22T16:08:00;30.90;80.60